sensor_id;sensor_type;location;lat;lon;timestamp;temperature;humidity
37974;DHT22;23796;51.458;7.000;2023-06-14T00:00:51;20.10;56.70
37974;DHT22;23796;51.458;7.000;2023-06-14T00:03:18;20.00;56.80
37974;DHT22;23796;51.458;7.000;2023-06-14T00:05:47;20.00;56.90
37974;DHT22;23796;51.458;7.000;2023-06-14T00:08:13;20.00;57.00
37974;DHT22;23796;51.458;7.000;2023-06-14T00:10:39;19.90;57.10
37974;DHT22;23796;51.458;7.000;2023-06-14T00:13:10;19.90;57.20
37974;DHT22;23796;51.458;7.000;2023-06-14T00:15:35;19.80;57.50
37974;DHT22;23796;51.458;7.000;2023-06-14T00:18:01;19.80;57.50
37974;DHT22;23796;51.458;7.000;2023-06-14T00:20:27;19.80;57.40
37974;DHT22;23796;51.458;7.000;2023-06-14T00:22:53;19.70;57.50
37974;DHT22;23796;51.458;7.000;2023-06-14T00:25:21;19.70;57.70
37974;DHT22;23796;51.458;7.000;2023-06-14T00:27:47;19.70;57.80
37974;DHT22;23796;51.458;7.000;2023-06-14T00:30:13;19.60;58.00
37974;DHT22;23796;51.458;7.000;2023-06-14T00:32:38;19.50;58.20
37974;DHT22;23796;51.458;7.000;2023-06-14T00:35:08;19.50;58.20
37974;DHT22;23796;51.458;7.000;2023-06-14T00:37:36;19.50;58.30
37974;DHT22;23796;51.458;7.000;2023-06-14T00:40:02;19.40;58.30
37974;DHT22;23796;51.458;7.000;2023-06-14T00:42:30;19.30;58.60
37974;DHT22;23796;51.458;7.000;2023-06-14T00:44:56;19.30;58.60
37974;DHT22;23796;51.458;7.000;2023-06-14T00:47:24;19.20;58.80
37974;DHT22;23796;51.458;7.000;2023-06-14T00:49:50;19.20;58.90
37974;DHT22;23796;51.458;7.000;2023-06-14T00:52:19;19.20;59.00
37974;DHT22;23796;51.458;7.000;2023-06-14T00:54:47;19.10;59.20
37974;DHT22;23796;51.458;7.000;2023-06-14T00:57:13;19.10;58.90
37974;DHT22;23796;51.458;7.000;2023-06-14T00:59:42;19.10;58.80
37974;DHT22;23796;51.458;7.000;2023-06-14T01:02:08;19.10;58.80
37974;DHT22;23796;51.458;7.000;2023-06-14T01:04:34;19.00;59.00
37974;DHT22;23796;51.458;7.000;2023-06-14T01:07:15;18.90;59.30
37974;DHT22;23796;51.458;7.000;2023-06-14T01:09:48;18.80;59.30
37974;DHT22;23796;51.458;7.000;2023-06-14T01:14:42;18.80;59.40
37974;DHT22;23796;51.458;7.000;2023-06-14T01:17:11;18.80;59.40
37974;DHT22;23796;51.458;7.000;2023-06-14T01:19:44;18.80;59.40
37974;DHT22;23796;51.458;7.000;2023-06-14T01:22:13;18.80;59.30
37974;DHT22;23796;51.458;7.000;2023-06-14T01:24:39;18.80;59.20
37974;DHT22;23796;51.458;7.000;2023-06-14T01:27:13;18.80;59.20
37974;DHT22;23796;51.458;7.000;2023-06-14T01:29:40;18.80;59.20
37974;DHT22;23796;51.458;7.000;2023-06-14T01:32:11;18.70;59.10
37974;DHT22;23796;51.458;7.000;2023-06-14T01:34:36;18.70;59.20
37974;DHT22;23796;51.458;7.000;2023-06-14T01:37:04;18.70;59.10
37974;DHT22;23796;51.458;7.000;2023-06-14T01:39:30;18.70;59.10
37974;DHT22;23796;51.458;7.000;2023-06-14T01:41:56;18.60;59.10
37974;DHT22;23796;51.458;7.000;2023-06-14T01:44:22;18.60;59.20
37974;DHT22;23796;51.458;7.000;2023-06-14T01:46:48;18.60;59.20
37974;DHT22;23796;51.458;7.000;2023-06-14T01:49:14;18.50;59.40
37974;DHT22;23796;51.458;7.000;2023-06-14T01:51:39;18.50;59.50
37974;DHT22;23796;51.458;7.000;2023-06-14T01:54:05;18.50;59.40
37974;DHT22;23796;51.458;7.000;2023-06-14T01:56:31;18.40;59.40
37974;DHT22;23796;51.458;7.000;2023-06-14T01:58:57;18.50;59.30
37974;DHT22;23796;51.458;7.000;2023-06-14T02:01:23;18.40;59.30
37974;DHT22;23796;51.458;7.000;2023-06-14T02:03:52;18.40;59.30
37974;DHT22;23796;51.458;7.000;2023-06-14T02:06:18;18.40;59.20
37974;DHT22;23796;51.458;7.000;2023-06-14T02:08:44;18.30;59.30
37974;DHT22;23796;51.458;7.000;2023-06-14T02:11:12;18.30;59.20
37974;DHT22;23796;51.458;7.000;2023-06-14T02:13:37;18.30;59.10
37974;DHT22;23796;51.458;7.000;2023-06-14T02:16:03;18.30;59.20
37974;DHT22;23796;51.458;7.000;2023-06-14T02:18:28;18.30;59.10
37974;DHT22;23796;51.458;7.000;2023-06-14T02:20:54;18.30;59.30
37974;DHT22;23796;51.458;7.000;2023-06-14T02:23:19;18.20;59.20
37974;DHT22;23796;51.458;7.000;2023-06-14T02:25:45;18.20;59.30
37974;DHT22;23796;51.458;7.000;2023-06-14T02:28:11;18.10;59.40
37974;DHT22;23796;51.458;7.000;2023-06-14T02:30:37;18.10;59.60
37974;DHT22;23796;51.458;7.000;2023-06-14T02:33:02;18.10;59.70
37974;DHT22;23796;51.458;7.000;2023-06-14T02:35:29;18.10;59.60
37974;DHT22;23796;51.458;7.000;2023-06-14T02:37:55;18.00;59.70
37974;DHT22;23796;51.458;7.000;2023-06-14T02:40:20;18.00;59.80
37974;DHT22;23796;51.458;7.000;2023-06-14T02:42:48;18.00;59.80
37974;DHT22;23796;51.458;7.000;2023-06-14T02:45:18;18.00;59.80
37974;DHT22;23796;51.458;7.000;2023-06-14T02:47:44;17.90;60.10
37974;DHT22;23796;51.458;7.000;2023-06-14T02:50:10;17.80;60.20
37974;DHT22;23796;51.458;7.000;2023-06-14T02:52:36;17.70;60.40
37974;DHT22;23796;51.458;7.000;2023-06-14T02:55:04;17.70;60.30
37974;DHT22;23796;51.458;7.000;2023-06-14T02:57:31;17.70;60.50
37974;DHT22;23796;51.458;7.000;2023-06-14T02:59:57;17.60;60.80
37974;DHT22;23796;51.458;7.000;2023-06-14T03:02:22;17.50;60.90
37974;DHT22;23796;51.458;7.000;2023-06-14T03:04:48;17.40;61.00
37974;DHT22;23796;51.458;7.000;2023-06-14T03:07:14;17.50;61.00
37974;DHT22;23796;51.458;7.000;2023-06-14T03:09:44;17.40;61.00
37974;DHT22;23796;51.458;7.000;2023-06-14T03:12:10;17.40;60.90
37974;DHT22;23796;51.458;7.000;2023-06-14T03:14:38;17.50;61.00
37974;DHT22;23796;51.458;7.000;2023-06-14T03:17:03;17.40;61.00
37974;DHT22;23796;51.458;7.000;2023-06-14T03:19:30;17.40;61.00
37974;DHT22;23796;51.458;7.000;2023-06-14T03:21:58;17.40;61.00
37974;DHT22;23796;51.458;7.000;2023-06-14T03:24:24;17.40;61.00
37974;DHT22;23796;51.458;7.000;2023-06-14T03:26:52;17.40;61.10
37974;DHT22;23796;51.458;7.000;2023-06-14T03:29:18;17.40;61.30
37974;DHT22;23796;51.458;7.000;2023-06-14T03:31:59;17.40;61.30
37974;DHT22;23796;51.458;7.000;2023-06-14T03:34:25;17.40;61.30
37974;DHT22;23796;51.458;7.000;2023-06-14T03:36:51;17.40;61.30
37974;DHT22;23796;51.458;7.000;2023-06-14T03:39:19;17.40;61.30
37974;DHT22;23796;51.458;7.000;2023-06-14T03:41:45;17.30;61.40
37974;DHT22;23796;51.458;7.000;2023-06-14T03:44:10;17.40;61.30
37974;DHT22;23796;51.458;7.000;2023-06-14T03:46:36;17.40;61.20
37974;DHT22;23796;51.458;7.000;2023-06-14T03:49:01;17.40;61.20
37974;DHT22;23796;51.458;7.000;2023-06-14T03:51:28;17.30;61.20
37974;DHT22;23796;51.458;7.000;2023-06-14T03:53:54;17.40;61.10
37974;DHT22;23796;51.458;7.000;2023-06-14T03:56:21;17.40;61.00
37974;DHT22;23796;51.458;7.000;2023-06-14T03:58:46;17.30;60.80
37974;DHT22;23796;51.458;7.000;2023-06-14T04:01:14;17.30;60.90
37974;DHT22;23796;51.458;7.000;2023-06-14T04:03:42;17.40;60.90
37974;DHT22;23796;51.458;7.000;2023-06-14T04:06:07;17.40;60.80
37974;DHT22;23796;51.458;7.000;2023-06-14T04:08:35;17.40;60.80
37974;DHT22;23796;51.458;7.000;2023-06-14T04:11:04;17.30;60.90
37974;DHT22;23796;51.458;7.000;2023-06-14T04:13:30;17.20;61.30
37974;DHT22;23796;51.458;7.000;2023-06-14T04:16:00;17.20;61.40
37974;DHT22;23796;51.458;7.000;2023-06-14T04:18:25;17.30;61.30
37974;DHT22;23796;51.458;7.000;2023-06-14T04:20:52;17.30;61.10
37974;DHT22;23796;51.458;7.000;2023-06-14T04:23:18;17.30;61.10
37974;DHT22;23796;51.458;7.000;2023-06-14T04:25:44;17.30;61.10
37974;DHT22;23796;51.458;7.000;2023-06-14T04:28:15;17.40;61.10
37974;DHT22;23796;51.458;7.000;2023-06-14T04:30:41;17.40;61.20
37974;DHT22;23796;51.458;7.000;2023-06-14T04:33:10;17.40;61.20
37974;DHT22;23796;51.458;7.000;2023-06-14T04:35:41;17.40;61.00
37974;DHT22;23796;51.458;7.000;2023-06-14T04:38:07;17.40;60.90
37974;DHT22;23796;51.458;7.000;2023-06-14T04:40:35;17.50;60.80
37974;DHT22;23796;51.458;7.000;2023-06-14T04:43:13;17.50;61.00
37974;DHT22;23796;51.458;7.000;2023-06-14T04:45:42;17.50;61.10
37974;DHT22;23796;51.458;7.000;2023-06-14T04:48:10;17.50;61.10
37974;DHT22;23796;51.458;7.000;2023-06-14T04:50:36;17.50;61.10
37974;DHT22;23796;51.458;7.000;2023-06-14T04:53:01;17.60;61.10
37974;DHT22;23796;51.458;7.000;2023-06-14T04:55:30;17.60;61.20
37974;DHT22;23796;51.458;7.000;2023-06-14T04:57:58;17.70;61.10
37974;DHT22;23796;51.458;7.000;2023-06-14T05:00:25;17.70;61.20
37974;DHT22;23796;51.458;7.000;2023-06-14T05:02:50;17.70;61.20
37974;DHT22;23796;51.458;7.000;2023-06-14T05:05:16;17.70;61.00
37974;DHT22;23796;51.458;7.000;2023-06-14T05:07:42;17.70;61.10
37974;DHT22;23796;51.458;7.000;2023-06-14T05:10:08;17.70;61.10
37974;DHT22;23796;51.458;7.000;2023-06-14T05:12:33;17.80;61.20
37974;DHT22;23796;51.458;7.000;2023-06-14T05:15:04;17.80;61.20
37974;DHT22;23796;51.458;7.000;2023-06-14T05:17:30;17.90;61.30
37974;DHT22;23796;51.458;7.000;2023-06-14T05:19:55;17.90;61.50
37974;DHT22;23796;51.458;7.000;2023-06-14T05:22:23;17.90;61.10
37974;DHT22;23796;51.458;7.000;2023-06-14T05:24:49;17.90;61.00
37974;DHT22;23796;51.458;7.000;2023-06-14T05:27:19;18.00;61.10
37974;DHT22;23796;51.458;7.000;2023-06-14T05:29:45;18.10;60.80
37974;DHT22;23796;51.458;7.000;2023-06-14T05:32:10;18.10;60.50
37974;DHT22;23796;51.458;7.000;2023-06-14T05:34:36;18.10;60.90
37974;DHT22;23796;51.458;7.000;2023-06-14T05:37:01;18.20;60.60
37974;DHT22;23796;51.458;7.000;2023-06-14T05:39:29;18.20;60.40
37974;DHT22;23796;51.458;7.000;2023-06-14T05:41:55;18.30;60.10
37974;DHT22;23796;51.458;7.000;2023-06-14T05:44:20;18.40;60.00
37974;DHT22;23796;51.458;7.000;2023-06-14T05:46:46;18.40;59.90
37974;DHT22;23796;51.458;7.000;2023-06-14T05:49:11;18.50;59.80
37974;DHT22;23796;51.458;7.000;2023-06-14T05:51:39;18.50;59.80
37974;DHT22;23796;51.458;7.000;2023-06-14T05:54:05;18.60;59.90
37974;DHT22;23796;51.458;7.000;2023-06-14T05:56:33;18.60;59.60
37974;DHT22;23796;51.458;7.000;2023-06-14T05:59:01;18.70;59.60
37974;DHT22;23796;51.458;7.000;2023-06-14T06:01:27;18.70;59.50
37974;DHT22;23796;51.458;7.000;2023-06-14T06:03:58;18.80;59.70
37974;DHT22;23796;51.458;7.000;2023-06-14T06:06:26;18.80;59.30
37974;DHT22;23796;51.458;7.000;2023-06-14T06:08:51;18.80;59.60
37974;DHT22;23796;51.458;7.000;2023-06-14T06:11:17;18.80;59.80
37974;DHT22;23796;51.458;7.000;2023-06-14T06:13:45;18.80;59.70
37974;DHT22;23796;51.458;7.000;2023-06-14T06:16:13;18.90;59.80
37974;DHT22;23796;51.458;7.000;2023-06-14T06:18:38;18.90;59.50
37974;DHT22;23796;51.458;7.000;2023-06-14T06:21:04;19.00;58.80
37974;DHT22;23796;51.458;7.000;2023-06-14T06:23:29;19.00;58.70
37974;DHT22;23796;51.458;7.000;2023-06-14T06:25:55;19.10;58.50
37974;DHT22;23796;51.458;7.000;2023-06-14T06:28:23;19.10;58.50
37974;DHT22;23796;51.458;7.000;2023-06-14T06:30:48;19.10;58.70
37974;DHT22;23796;51.458;7.000;2023-06-14T06:33:14;19.20;57.60
37974;DHT22;23796;51.458;7.000;2023-06-14T06:35:40;19.20;57.70
37974;DHT22;23796;51.458;7.000;2023-06-14T06:38:05;19.30;57.70
37974;DHT22;23796;51.458;7.000;2023-06-14T06:40:31;19.30;57.00
37974;DHT22;23796;51.458;7.000;2023-06-14T06:42:56;19.40;56.80
37974;DHT22;23796;51.458;7.000;2023-06-14T06:45:22;19.50;56.80
37974;DHT22;23796;51.458;7.000;2023-06-14T06:47:51;19.50;56.80
37974;DHT22;23796;51.458;7.000;2023-06-14T06:50:17;19.60;56.30
37974;DHT22;23796;51.458;7.000;2023-06-14T06:52:43;19.60;56.20
37974;DHT22;23796;51.458;7.000;2023-06-14T06:55:10;19.70;56.20
37974;DHT22;23796;51.458;7.000;2023-06-14T06:57:38;19.70;55.70
37974;DHT22;23796;51.458;7.000;2023-06-14T07:00:04;19.80;55.90
37974;DHT22;23796;51.458;7.000;2023-06-14T07:02:33;19.80;55.80
37974;DHT22;23796;51.458;7.000;2023-06-14T07:04:59;19.90;55.80
37974;DHT22;23796;51.458;7.000;2023-06-14T07:07:24;20.00;55.10
37974;DHT22;23796;51.458;7.000;2023-06-14T07:09:52;20.00;55.20
37974;DHT22;23796;51.458;7.000;2023-06-14T07:12:18;20.00;55.20
37974;DHT22;23796;51.458;7.000;2023-06-14T07:14:43;20.10;55.40
37974;DHT22;23796;51.458;7.000;2023-06-14T07:17:09;20.20;55.20
37974;DHT22;23796;51.458;7.000;2023-06-14T07:19:39;20.20;55.20
37974;DHT22;23796;51.458;7.000;2023-06-14T07:22:04;20.20;55.10
37974;DHT22;23796;51.458;7.000;2023-06-14T07:24:30;20.20;54.50
37974;DHT22;23796;51.458;7.000;2023-06-14T07:26:55;20.20;54.60
37974;DHT22;23796;51.458;7.000;2023-06-14T07:29:21;20.20;54.80
37974;DHT22;23796;51.458;7.000;2023-06-14T07:31:47;20.30;54.90
37974;DHT22;23796;51.458;7.000;2023-06-14T07:34:12;20.30;54.90
37974;DHT22;23796;51.458;7.000;2023-06-14T07:36:38;20.30;55.20
37974;DHT22;23796;51.458;7.000;2023-06-14T07:39:04;20.40;55.10
37974;DHT22;23796;51.458;7.000;2023-06-14T07:41:31;20.40;55.10
37974;DHT22;23796;51.458;7.000;2023-06-14T07:43:56;20.40;55.10
37974;DHT22;23796;51.458;7.000;2023-06-14T07:46:22;20.50;54.70
37974;DHT22;23796;51.458;7.000;2023-06-14T07:48:47;20.50;54.80
37974;DHT22;23796;51.458;7.000;2023-06-14T07:51:15;20.50;54.80
37974;DHT22;23796;51.458;7.000;2023-06-14T07:53:41;20.50;54.40
37974;DHT22;23796;51.458;7.000;2023-06-14T07:56:07;20.50;54.30
37974;DHT22;23796;51.458;7.000;2023-06-14T07:58:35;20.50;54.60
37974;DHT22;23796;51.458;7.000;2023-06-14T08:01:03;20.60;54.40
37974;DHT22;23796;51.458;7.000;2023-06-14T08:03:31;20.60;54.50
37974;DHT22;23796;51.458;7.000;2023-06-14T08:05:57;20.60;54.70
37974;DHT22;23796;51.458;7.000;2023-06-14T08:08:23;20.70;54.60
37974;DHT22;23796;51.458;7.000;2023-06-14T08:10:48;20.70;54.80
37974;DHT22;23796;51.458;7.000;2023-06-14T08:13:14;20.80;54.00
37974;DHT22;23796;51.458;7.000;2023-06-14T08:15:39;20.80;53.70
37974;DHT22;23796;51.458;7.000;2023-06-14T08:18:05;20.80;54.00
37974;DHT22;23796;51.458;7.000;2023-06-14T08:20:30;20.70;54.60
37974;DHT22;23796;51.458;7.000;2023-06-14T08:23:00;20.80;54.60
37974;DHT22;23796;51.458;7.000;2023-06-14T08:25:25;20.80;54.60
37974;DHT22;23796;51.458;7.000;2023-06-14T08:27:51;20.80;54.60
37974;DHT22;23796;51.458;7.000;2023-06-14T08:30:17;20.90;54.60
37974;DHT22;23796;51.458;7.000;2023-06-14T08:32:43;20.80;54.60
37974;DHT22;23796;51.458;7.000;2023-06-14T08:35:09;20.80;54.80
37974;DHT22;23796;51.458;7.000;2023-06-14T08:37:38;20.90;53.80
37974;DHT22;23796;51.458;7.000;2023-06-14T08:40:04;20.90;53.40
37974;DHT22;23796;51.458;7.000;2023-06-14T08:42:32;21.00;53.60
37974;DHT22;23796;51.458;7.000;2023-06-14T08:44:58;20.90;53.60
37974;DHT22;23796;51.458;7.000;2023-06-14T08:47:23;20.90;53.60
37974;DHT22;23796;51.458;7.000;2023-06-14T08:49:54;20.90;54.10
37974;DHT22;23796;51.458;7.000;2023-06-14T08:52:22;21.00;53.80
37974;DHT22;23796;51.458;7.000;2023-06-14T08:54:48;20.90;54.20
37974;DHT22;23796;51.458;7.000;2023-06-14T08:57:14;21.10;53.40
37974;DHT22;23796;51.458;7.000;2023-06-14T08:59:43;21.10;53.40
37974;DHT22;23796;51.458;7.000;2023-06-14T09:02:10;21.10;53.40
37974;DHT22;23796;51.458;7.000;2023-06-14T09:04:38;21.10;53.50
37974;DHT22;23796;51.458;7.000;2023-06-14T09:07:08;21.10;53.50
37974;DHT22;23796;51.458;7.000;2023-06-14T09:09:38;21.20;53.60
37974;DHT22;23796;51.458;7.000;2023-06-14T09:12:03;21.30;52.90
37974;DHT22;23796;51.458;7.000;2023-06-14T09:14:31;21.40;51.70
37974;DHT22;23796;51.458;7.000;2023-06-14T09:17:00;21.40;51.60
37974;DHT22;23796;51.458;7.000;2023-06-14T09:19:26;21.40;51.80
37974;DHT22;23796;51.458;7.000;2023-06-14T09:21:52;21.30;51.60
37974;DHT22;23796;51.458;7.000;2023-06-14T09:24:18;21.40;50.60
37974;DHT22;23796;51.458;7.000;2023-06-14T09:26:47;21.50;50.30
37974;DHT22;23796;51.458;7.000;2023-06-14T09:29:12;21.50;50.50
37974;DHT22;23796;51.458;7.000;2023-06-14T09:31:38;21.40;50.00
37974;DHT22;23796;51.458;7.000;2023-06-14T09:34:03;21.40;50.80
37974;DHT22;23796;51.458;7.000;2023-06-14T09:36:30;21.40;51.10
37974;DHT22;23796;51.458;7.000;2023-06-14T09:38:57;21.50;51.00
37974;DHT22;23796;51.458;7.000;2023-06-14T09:41:32;21.60;50.30
37974;DHT22;23796;51.458;7.000;2023-06-14T09:43:58;21.60;50.20
37974;DHT22;23796;51.458;7.000;2023-06-14T09:46:29;21.40;51.00
37974;DHT22;23796;51.458;7.000;2023-06-14T09:48:57;21.60;50.90
37974;DHT22;23796;51.458;7.000;2023-06-14T09:51:23;21.70;50.60
37974;DHT22;23796;51.458;7.000;2023-06-14T09:53:49;21.90;50.20
37974;DHT22;23796;51.458;7.000;2023-06-14T09:56:17;21.90;49.70
37974;DHT22;23796;51.458;7.000;2023-06-14T09:58:47;21.90;50.10
37974;DHT22;23796;51.458;7.000;2023-06-14T10:01:15;22.00;50.50
37974;DHT22;23796;51.458;7.000;2023-06-14T10:03:41;21.90;49.80
37974;DHT22;23796;51.458;7.000;2023-06-14T10:06:11;21.90;49.90
37974;DHT22;23796;51.458;7.000;2023-06-14T10:08:36;21.90;49.20
37974;DHT22;23796;51.458;7.000;2023-06-14T10:11:03;22.00;49.20
37974;DHT22;23796;51.458;7.000;2023-06-14T10:13:28;22.10;49.10
37974;DHT22;23796;51.458;7.000;2023-06-14T10:16:10;22.10;48.90
37974;DHT22;23796;51.458;7.000;2023-06-14T10:18:45;22.20;48.50
37974;DHT22;23796;51.458;7.000;2023-06-14T10:21:28;22.10;48.60
37974;DHT22;23796;51.458;7.000;2023-06-14T10:23:56;22.20;48.40
37974;DHT22;23796;51.458;7.000;2023-06-14T10:26:23;22.20;48.40
37974;DHT22;23796;51.458;7.000;2023-06-14T10:29:23;22.20;48.50
37974;DHT22;23796;51.458;7.000;2023-06-14T10:31:48;22.20;48.40
37974;DHT22;23796;51.458;7.000;2023-06-14T10:34:25;22.30;48.30
37974;DHT22;23796;51.458;7.000;2023-06-14T10:37:04;22.30;48.00
37974;DHT22;23796;51.458;7.000;2023-06-14T10:39:31;22.30;48.20
37974;DHT22;23796;51.458;7.000;2023-06-14T10:41:57;22.30;48.10
37974;DHT22;23796;51.458;7.000;2023-06-14T10:46:49;22.40;48.80
37974;DHT22;23796;51.458;7.000;2023-06-14T10:49:18;22.40;49.20
37974;DHT22;23796;51.458;7.000;2023-06-14T10:51:49;22.50;48.80
37974;DHT22;23796;51.458;7.000;2023-06-14T10:54:16;22.50;48.90
37974;DHT22;23796;51.458;7.000;2023-06-14T10:56:48;22.50;48.60
37974;DHT22;23796;51.458;7.000;2023-06-14T10:59:14;22.60;48.80
37974;DHT22;23796;51.458;7.000;2023-06-14T11:02:07;22.50;49.10
37974;DHT22;23796;51.458;7.000;2023-06-14T11:04:47;22.50;49.50
37974;DHT22;23796;51.458;7.000;2023-06-14T11:12:30;22.70;49.90
37974;DHT22;23796;51.458;7.000;2023-06-14T11:14:57;22.80;49.70
37974;DHT22;23796;51.458;7.000;2023-06-14T11:17:22;22.80;49.50
37974;DHT22;23796;51.458;7.000;2023-06-14T11:19:48;22.80;49.10
37974;DHT22;23796;51.458;7.000;2023-06-14T11:22:13;22.80;49.40
37974;DHT22;23796;51.458;7.000;2023-06-14T11:24:40;22.70;49.90
37974;DHT22;23796;51.458;7.000;2023-06-14T11:27:05;22.80;49.50
37974;DHT22;23796;51.458;7.000;2023-06-14T11:29:33;22.90;49.20
37974;DHT22;23796;51.458;7.000;2023-06-14T11:31:59;22.70;49.70
37974;DHT22;23796;51.458;7.000;2023-06-14T11:34:24;22.90;49.70
37974;DHT22;23796;51.458;7.000;2023-06-14T11:36:50;22.80;49.30
37974;DHT22;23796;51.458;7.000;2023-06-14T11:39:16;23.00;49.70
37974;DHT22;23796;51.458;7.000;2023-06-14T11:41:42;23.10;49.70
37974;DHT22;23796;51.458;7.000;2023-06-14T11:44:08;23.10;49.40
37974;DHT22;23796;51.458;7.000;2023-06-14T11:46:34;23.10;49.00
37974;DHT22;23796;51.458;7.000;2023-06-14T11:49:01;23.10;49.20
37974;DHT22;23796;51.458;7.000;2023-06-14T11:51:31;23.10;49.50
37974;DHT22;23796;51.458;7.000;2023-06-14T11:53:57;23.10;49.60
37974;DHT22;23796;51.458;7.000;2023-06-14T11:56:23;23.20;49.40
37974;DHT22;23796;51.458;7.000;2023-06-14T11:58:49;23.30;49.40
37974;DHT22;23796;51.458;7.000;2023-06-14T12:01:18;23.30;49.60
37974;DHT22;23796;51.458;7.000;2023-06-14T12:03:47;23.40;49.60
37974;DHT22;23796;51.458;7.000;2023-06-14T12:06:13;23.40;49.80
37974;DHT22;23796;51.458;7.000;2023-06-14T12:08:40;23.40;50.10
37974;DHT22;23796;51.458;7.000;2023-06-14T12:11:06;23.50;49.90
37974;DHT22;23796;51.458;7.000;2023-06-14T12:13:37;23.60;49.90
37974;DHT22;23796;51.458;7.000;2023-06-14T12:16:03;23.80;49.20
37974;DHT22;23796;51.458;7.000;2023-06-14T12:18:32;23.90;49.00
37974;DHT22;23796;51.458;7.000;2023-06-14T12:21:06;23.90;49.10
37974;DHT22;23796;51.458;7.000;2023-06-14T12:26:14;24.00;48.40
37974;DHT22;23796;51.458;7.000;2023-06-14T12:28:40;24.00;48.60
37974;DHT22;23796;51.458;7.000;2023-06-14T12:31:07;23.90;48.40
37974;DHT22;23796;51.458;7.000;2023-06-14T12:33:32;23.80;48.60
37974;DHT22;23796;51.458;7.000;2023-06-14T12:36:02;23.70;49.20
37974;DHT22;23796;51.458;7.000;2023-06-14T12:38:30;23.80;49.20
37974;DHT22;23796;51.458;7.000;2023-06-14T12:40:56;23.90;48.90
37974;DHT22;23796;51.458;7.000;2023-06-14T12:43:22;24.10;49.20
37974;DHT22;23796;51.458;7.000;2023-06-14T12:45:50;24.20;48.50
37974;DHT22;23796;51.458;7.000;2023-06-14T12:48:16;24.30;48.60
37974;DHT22;23796;51.458;7.000;2023-06-14T12:50:42;24.30;48.60
37974;DHT22;23796;51.458;7.000;2023-06-14T12:53:07;24.10;48.90
37974;DHT22;23796;51.458;7.000;2023-06-14T12:55:33;24.10;48.50
37974;DHT22;23796;51.458;7.000;2023-06-14T12:57:58;24.20;48.30
37974;DHT22;23796;51.458;7.000;2023-06-14T13:00:24;24.20;48.20
37974;DHT22;23796;51.458;7.000;2023-06-14T13:02:51;24.20;48.90
37974;DHT22;23796;51.458;7.000;2023-06-14T13:05:17;24.50;48.40
37974;DHT22;23796;51.458;7.000;2023-06-14T13:07:43;24.60;47.80
37974;DHT22;23796;51.458;7.000;2023-06-14T13:10:09;24.60;48.10
37974;DHT22;23796;51.458;7.000;2023-06-14T13:12:37;24.70;47.90
37974;DHT22;23796;51.458;7.000;2023-06-14T13:15:03;24.70;47.80
37974;DHT22;23796;51.458;7.000;2023-06-14T13:17:28;24.80;46.80
37974;DHT22;23796;51.458;7.000;2023-06-14T13:19:54;24.80;46.20
37974;DHT22;23796;51.458;7.000;2023-06-14T13:22:20;24.90;45.70
37974;DHT22;23796;51.458;7.000;2023-06-14T13:24:45;24.90;46.20
37974;DHT22;23796;51.458;7.000;2023-06-14T13:27:11;25.00;46.60
37974;DHT22;23796;51.458;7.000;2023-06-14T13:29:41;25.00;46.80
37974;DHT22;23796;51.458;7.000;2023-06-14T13:32:07;25.00;45.90
37974;DHT22;23796;51.458;7.000;2023-06-14T13:34:32;24.90;46.80
37974;DHT22;23796;51.458;7.000;2023-06-14T13:37:00;24.70;47.00
37974;DHT22;23796;51.458;7.000;2023-06-14T13:39:26;24.80;46.90
37974;DHT22;23796;51.458;7.000;2023-06-14T13:41:51;24.80;46.80
37974;DHT22;23796;51.458;7.000;2023-06-14T13:44:17;24.90;46.80
37974;DHT22;23796;51.458;7.000;2023-06-14T13:46:46;25.10;46.70
37974;DHT22;23796;51.458;7.000;2023-06-14T13:49:12;25.20;46.10
37974;DHT22;23796;51.458;7.000;2023-06-14T13:51:38;25.10;45.80
37974;DHT22;23796;51.458;7.000;2023-06-14T13:54:04;24.70;46.50
37974;DHT22;23796;51.458;7.000;2023-06-14T13:56:29;24.80;46.80
37974;DHT22;23796;51.458;7.000;2023-06-14T13:58:55;25.00;46.40
37974;DHT22;23796;51.458;7.000;2023-06-14T14:01:21;25.00;45.70
37974;DHT22;23796;51.458;7.000;2023-06-14T14:03:48;24.90;46.20
37974;DHT22;23796;51.458;7.000;2023-06-14T14:06:15;25.00;46.80
37974;DHT22;23796;51.458;7.000;2023-06-14T14:08:43;24.90;45.90
37974;DHT22;23796;51.458;7.000;2023-06-14T14:11:11;24.80;47.00
37974;DHT22;23796;51.458;7.000;2023-06-14T14:13:36;25.00;46.10
37974;DHT22;23796;51.458;7.000;2023-06-14T14:16:02;25.20;46.10
37974;DHT22;23796;51.458;7.000;2023-06-14T14:18:30;25.20;45.80
37974;DHT22;23796;51.458;7.000;2023-06-14T14:20:56;24.90;46.20
37974;DHT22;23796;51.458;7.000;2023-06-14T14:23:21;24.80;47.20
37974;DHT22;23796;51.458;7.000;2023-06-14T14:25:49;25.20;46.10
37974;DHT22;23796;51.458;7.000;2023-06-14T14:28:15;25.40;45.70
37974;DHT22;23796;51.458;7.000;2023-06-14T14:30:46;25.40;45.00
37974;DHT22;23796;51.458;7.000;2023-06-14T14:33:15;25.30;45.60
37974;DHT22;23796;51.458;7.000;2023-06-14T14:35:45;25.40;45.60
37974;DHT22;23796;51.458;7.000;2023-06-14T14:38:14;25.50;45.70
37974;DHT22;23796;51.458;7.000;2023-06-14T14:40:41;25.60;45.10
37974;DHT22;23796;51.458;7.000;2023-06-14T14:43:06;25.50;45.90
37974;DHT22;23796;51.458;7.000;2023-06-14T14:45:32;25.60;45.00
37974;DHT22;23796;51.458;7.000;2023-06-14T14:47:58;25.70;45.00
37974;DHT22;23796;51.458;7.000;2023-06-14T14:50:24;25.80;44.70
37974;DHT22;23796;51.458;7.000;2023-06-14T14:52:50;25.80;44.60
37974;DHT22;23796;51.458;7.000;2023-06-14T14:55:16;25.90;44.60
37974;DHT22;23796;51.458;7.000;2023-06-14T14:57:41;25.90;45.00
37974;DHT22;23796;51.458;7.000;2023-06-14T15:00:07;25.60;45.00
37974;DHT22;23796;51.458;7.000;2023-06-14T15:02:33;25.70;44.80
37974;DHT22;23796;51.458;7.000;2023-06-14T15:04:58;25.80;44.60
37974;DHT22;23796;51.458;7.000;2023-06-14T15:07:29;25.80;44.90
37974;DHT22;23796;51.458;7.000;2023-06-14T15:09:55;25.90;44.40
37974;DHT22;23796;51.458;7.000;2023-06-14T15:12:23;26.00;44.10
37974;DHT22;23796;51.458;7.000;2023-06-14T15:14:52;26.00;44.00
37974;DHT22;23796;51.458;7.000;2023-06-14T15:17:18;26.10;44.30
37974;DHT22;23796;51.458;7.000;2023-06-14T15:19:44;26.10;44.40
37974;DHT22;23796;51.458;7.000;2023-06-14T15:22:10;26.20;44.10
37974;DHT22;23796;51.458;7.000;2023-06-14T15:24:40;26.20;44.00
37974;DHT22;23796;51.458;7.000;2023-06-14T15:27:05;26.10;44.50
37974;DHT22;23796;51.458;7.000;2023-06-14T15:29:31;26.20;44.30
37974;DHT22;23796;51.458;7.000;2023-06-14T15:31:56;26.30;43.50
37974;DHT22;23796;51.458;7.000;2023-06-14T15:34:23;26.30;44.00
37974;DHT22;23796;51.458;7.000;2023-06-14T15:36:49;26.30;43.70
37974;DHT22;23796;51.458;7.000;2023-06-14T15:39:16;26.10;43.20
37974;DHT22;23796;51.458;7.000;2023-06-14T15:41:42;26.10;43.80